Date,TemperatureHighF,TemperatureAvgF,TemperatureLowF,DewpointHighF,DewpointAvgF,DewpointLowF,HumidityHigh,HumidityAvg,HumidityLow,PressureMaxIn,PressureMinIn,WindSpeedMaxMPH,WindSpeedAvgMPH,GustSpeedMaxMPH,PrecipitationSumIn
2014-1-1,51.0,38.7,27.6,28.5,24.7,19.4,80,59,32,30.38,30.10,14,2,18,0.00
2014-1-2,43.4,36.7,27.9,42.0,31.8,19.1,97,83,60,30.10,29.62,21,1,34,0.14
2014-1-3,32.6,23.1,16.1,22.6,7.4,2.0,70,51,36,30.43,29.73,21,8,36,0.00
2014-1-4,43.2,28.8,17.1,22.2,15.3,9.7,82,59,32,30.46,30.24,10,1,14,0.00
2014-1-5,42.4,37.8,31.2,42.4,33.1,18.4,100,84,57,30.25,29.69,9,1,12,0.21
2014-1-6,47.2,31.3,2.9,46.4,19.7,-11.1,100,64,42,30.13,29.57,23,11,38,0.04
2014-1-7,24.8,12.3,0.1,5.5,-4.1,-12.6,59,48,33,30.40,30.13,19,7,31,0.00
2014-1-8,45.5,28.1,13.3,20.4,10.5,1.4,63,49,26,30.53,30.39,8,1,11,0.00
2014-1-9,51.4,38.2,25.7,24.4,20.9,15.8,75,52,28,30.55,30.42,10,1,16,0.00
2014-1-10,43.6,40.7,35.3,42.4,36.6,23.1,98,87,48,30.47,30.10,7,0,10,0.52
2014-1-11,50.4,46.6,41.3,50.3,44.7,33.1,100,94,55,30.10,29.51,18,3,32,0.64
2014-1-12,54.1,46.2,35.7,33.8,30.1,24.6,78,54,35,30.13,29.68,24,6,36,0.00
2014-1-13,54.7,42.8,27.6,39.7,33.5,25.1,95,72,46,30.11,29.89,8,0,13,0.00
2014-1-14,53.0,46.6,36.4,47.4,40.2,29.1,99,80,44,29.95,29.74,16,2,24,0.16
2014-1-15,50.1,39.4,29.2,39.1,32.3,22.2,93,77,52,29.96,29.87,13,4,21,0.00
2014-1-16,45.9,34.1,23.6,23.4,18.8,13.9,72,54,33,30.03,29.87,12,2,18,0.00
2014-1-17,51.2,37.2,24.4,37.2,25.5,18.2,90,65,36,29.94,29.79,13,2,21,0.00
2014-1-18,35.3,28.5,22.3,26.5,14.3,7.3,70,56,42,30.00,29.85,18,7,28,0.00
2014-1-19,48.2,36.3,24.0,29.5,24.5,15.6,80,63,46,29.91,29.84,19,3,26,0.00
2014-1-20,61.9,46.7,38.5,28.7,25.7,19.4,63,45,22,29.84,29.73,15,5,23,0.00
2014-1-21,43.2,36.1,20.1,36.1,28.8,11.9,98,75,61,29.85,29.60,14,2,21,0.00
2014-1-22,27.7,20.2,12.0,14.7,5.1,-2.6,71,53,33,30.04,29.85,14,5,23,0.00
2014-1-23,29.3,21.9,9.5,17.1,7.9,-3.4,70,55,42,30.45,30.03,17,7,24,0.00
2014-1-24,31.5,16.8,4.9,7.4,0.5,-7.0,63,50,27,30.54,30.07,15,4,23,0.00
2014-1-25,38.4,28.5,18.0,27.3,14.0,3.8,82,55,35,30.07,29.55,21,5,34,0.00
2014-1-26,51.9,36.4,22.6,22.4,10.8,-0.2,53,36,18,29.89,29.70,18,3,30,0.00
2014-1-27,53.9,38.3,19.6,32.2,19.2,-2.7,70,47,27,30.17,29.73,21,7,33,0.00
2014-1-28,25.2,19.3,12.8,18.3,6.8,-5.0,89,60,37,30.34,30.16,18,3,26,0.00
2014-1-29,28.6,19.2,8.9,16.7,2.3,-6.4,87,50,28,30.32,30.14,13,4,21,0.00
2014-1-30,40.6,23.4,6.8,12.1,5.9,-1.9,70,49,27,30.40,30.18,9,1,13,0.00
2014-1-31,58.6,36.9,21.3,24.6,14.8,7.7,72,44,16,30.21,30.08,10,1,17,0.00
2014-2-1,62.0,42.8,27.0,26.7,22.1,17.5,73,47,21,30.26,30.05,12,2,17,0.00
2014-2-2,67.1,53.3,41.8,49.8,38.3,24.9,76,57,46,30.06,29.98,15,2,22,0.00
2014-2-3,53.2,47.3,41.5,48.4,42.7,36.6,96,84,64,30.29,29.88,12,2,17,1.85
2014-2-4,45.4,40.2,34.7,39.0,35.2,31.1,94,83,62,30.43,30.11,10,2,13,0.14
2014-2-5,57.4,39.0,29.5,42.5,32.8,20.2,98,80,47,30.13,29.73,22,5,32,0.03
2014-2-6,43.5,33.4,24.1,24.4,20.3,15.4,72,59,41,30.32,30.13,15,5,25,0.00
2014-2-7,43.5,33.7,22.8,24.9,22.2,18.0,84,64,44,30.36,30.25,10,2,15,0.00
2014-2-8,45.6,37.5,28.5,33.6,26.3,20.3,74,64,48,30.30,30.14,6,0,9,0.00
2014-2-9,47.1,41.7,35.2,37.8,31.5,26.8,78,67,56,30.17,29.97,13,3,23,0.00
2014-2-10,40.3,34.1,26.0,28.9,20.6,11.7,72,58,38,30.26,30.04,17,4,22,0.00
2014-2-11,44.4,30.7,20.4,20.4,16.6,11.5,78,57,33,30.39,30.24,9,1,12,0.00
2014-2-12,30.5,24.3,17.9,25.0,15.6,9.0,100,71,49,30.44,29.96,11,2,15,0.00
2014-2-13,38.7,28.8,19.2,35.2,26.3,19.0,100,91,60,29.96,29.45,20,4,29,0.26
2014-2-14,53.1,42.1,30.0,31.8,25.1,17.0,72,53,27,29.72,29.58,15,5,23,0.05
2014-2-15,40.0,33.7,23.3,37.3,25.0,15.1,98,71,50,30.06,29.57,21,7,33,0.10
2014-2-16,47.1,33.7,21.7,29.8,22.9,15.3,80,65,47,30.17,29.98,19,6,29,0.00
2014-2-17,47.5,35.5,22.2,27.6,22.3,16.4,80,60,37,30.38,30.16,10,2,14,0.00
2014-2-18,60.2,43.5,26.7,32.8,25.4,18.5,87,54,21,30.18,30.05,11,2,17,0.00
2014-2-19,67.5,49.8,36.0,46.1,34.8,24.2,90,60,36,30.12,29.84,18,3,31,0.02
2014-2-20,51.1,45.2,37.4,37.3,32.0,26.2,83,61,43,30.26,29.95,10,1,14,0.00
2014-2-21,60.2,49.6,40.2,56.9,34.8,11.7,100,63,16,30.04,29.76,18,5,33,0.56
2014-2-22,66.4,50.2,39.5,28.7,23.2,16.1,61,38,15,30.17,30.04,10,2,16,0.00
2014-2-23,69.8,51.3,33.4,33.9,28.5,23.0,80,47,18,30.08,29.87,16,2,22,0.00
2014-2-24,48.8,42.5,33.3,35.6,17.9,9.2,70,40,21,30.16,29.96,20,7,34,0.00
2014-2-25,45.9,37.3,29.2,21.9,17.5,9.0,59,45,34,30.12,29.98,15,2,21,0.00
2014-2-26,41.7,34.4,23.3,25.7,18.1,10.0,65,52,32,29.98,29.83,17,5,24,0.00
2014-2-27,45.9,31.9,21.6,16.1,9.1,0.2,69,41,19,30.03,29.72,22,6,30,0.00
2014-2-28,44.6,30.7,19.8,15.5,11.1,2.9,65,45,29,30.32,30.03,10,3,14,0.00
2014-3-1,58.2,38.4,22.0,28.6,18.1,8.4,64,45,26,30.35,28.84,8,1,11,0.00
2014-3-2,68.9,51.7,34.5,53.1,40.4,26.4,96,67,38,30.21,29.88,8,1,14,0.27
2014-3-3,52.5,33.1,18.8,51.4,30.2,15.2,97,89,76,30.30,29.81,12,2,20,0.87
2014-3-4,40.9,27.0,13.4,22.4,15.4,8.8,89,64,40,30.37,30.19,7,0,10,0.02
2014-3-5,57.9,38.2,22.8,31.0,23.8,17.0,83,59,33,30.31,30.12,10,2,14,0.00
2014-3-6,46.4,36.2,28.9,28.7,20.9,14.0,83,55,35,30.44,30.23,10,3,17,0.00
2014-3-7,48.2,35.5,24.3,39.3,31.8,23.8,99,87,63,30.24,29.95,13,3,19,0.15
2014-3-8,69.3,50.3,30.8,41.2,31.9,24.1,95,57,19,30.04,29.93,13,4,21,0.00
2014-3-9,62.3,50.9,46.2,37.3,30.4,22.7,65,47,27,30.12,29.97,19,5,28,0.00
2014-3-10,72.6,56.5,43.0,40.6,28.0,20.7,56,36,16,30.03,29.77,14,4,21,0.00
2014-3-11,77.7,61.5,48.1,41.0,34.7,20.8,68,41,13,29.83,29.67,13,3,20,0.00
2014-3-12,70.4,53.3,35.4,57.8,39.3,20.8,84,60,41,29.70,29.19,27,6,43,0.00
2014-3-13,41.1,31.3,23.0,23.9,11.1,4.4,80,44,24,30.21,29.63,22,10,36,0.00
2014-3-14,66.8,46.2,26.2,23.4,16.4,9.7,54,32,15,30.24,30.00,12,3,22,0.00
2014-3-15,69.6,55.9,44.2,35.7,28.0,21.0,60,36,19,30.08,29.91,18,4,28,0.00
2014-3-16,48.8,42.9,33.7,38.7,31.3,24.4,94,66,39,30.11,29.93,11,2,18,0.24
2014-3-17,35.2,31.2,26.6,33.4,29.5,24.8,97,94,90,30.03,29.89,9,1,13,0.00
2014-3-18,43.5,36.1,28.3,38.6,33.6,26.9,99,91,76,30.20,29.99,8,0,12,0.11
2014-3-19,52.1,42.8,34.4,45.4,40.0,33.1,96,90,76,30.20,29.97,10,2,15,0.08
2014-3-20,61.9,51.3,43.9,43.8,29.1,17.2,89,49,19,30.06,29.95,17,5,26,0.00
2014-3-21,71.6,52.7,34.8,31.6,26.8,17.7,76,42,14,30.12,29.99,13,2,21,0.00
2014-3-22,71.9,57.8,46.8,38.6,33.1,25.1,59,40,28,30.02,29.92,15,3,24,0.00
2014-3-23,50.7,46.0,36.8,42.0,30.4,19.6,86,56,39,30.18,30.00,15,4,24,0.06
2014-3-24,52.7,38.5,24.9,20.8,13.7,-24.3,57,38,19,30.30,30.07,14,2,23,0.00
2014-3-25,46.9,37.2,27.3,36.2,27.1,16.0,97,68,40,30.08,29.81,16,3,28,0.27
2014-3-26,43.2,32.4,24.9,27.4,12.7,6.7,97,46,27,30.31,29.98,20,8,30,0.00
2014-3-27,62.8,42.6,25.2,25.9,20.6,12.2,81,46,20,30.43,30.21,13,3,21,0.00
2014-3-28,66.0,55.5,47.2,52.6,45.7,23.8,88,71,41,30.23,30.08,9,3,17,0.00
2014-3-29,62.3,56.2,46.5,60.6,54.5,43.5,97,94,85,30.13,29.60,18,2,28,0.70
2014-3-30,51.8,43.7,37.4,43.7,32.2,24.9,94,65,43,29.99,29.65,25,13,39,0.06
2014-3-31,73.6,55.7,42.2,34.8,25.6,18.0,50,34,15,30.17,29.99,18,6,31,0.00
2014-4-1,79.9,60.1,41.4,41.5,36.2,30.3,81,46,19,30.21,29.98,10,2,16,0.00
2014-4-2,87.3,66.8,49.0,47.5,39.4,33.5,69,41,16,30.11,30.00,12,3,18,0.00
2014-4-3,77.1,64.6,50.5,52.8,46.1,39.8,73,52,33,30.14,29.91,12,2,18,0.02
2014-4-4,73.0,65.3,55.8,59.8,55.7,49.1,95,73,45,29.97,29.71,18,4,30,0.08
2014-4-5,62.7,54.3,46.3,52.6,33.4,25.5,70,46,29,30.16,29.82,17,8,29,0.00
2014-4-6,66.8,52.1,36.6,36.0,32.0,28.7,80,49,28,30.25,30.11,11,3,16,0.00
2014-4-7,54.0,48.5,47.0,48.0,45.2,32.6,98,89,46,30.13,29.64,12,3,18,1.29
2014-4-8,65.6,54.4,47.7,49.5,40.7,33.5,100,63,36,29.76,29.57,20,6,29,0.00
2014-4-9,66.2,54.3,44.2,39.3,36.5,29.4,79,53,26,30.13,29.74,17,3,30,0.00
2014-4-10,76.3,58.0,39.8,39.7,35.6,29.1,83,49,19,30.27,30.10,11,2,18,0.00
2014-4-11,80.3,64.5,49.0,51.0,39.2,32.1,70,43,21,30.17,30.00,17,3,26,0.01
2014-4-12,80.9,65.5,49.2,51.6,47.7,43.4,85,56,29,30.28,30.12,12,2,18,0.00
2014-4-13,84.8,68.8,53.7,53.2,49.4,44.7,77,53,28,30.19,30.06,12,3,21,0.00
2014-4-14,73.9,67.9,62.2,66.3,55.8,50.0,99,66,49,30.09,24.46,56,3,56,0.03
2014-4-15,65.5,53.1,33.6,62.5,48.8,22.4,100,86,60,30.23,24.20,57,6,58,0.19
2014-4-16,60.6,42.1,27.3,36.1,23.2,15.9,92,50,26,30.99,24.19,58,4,58,0.06
2014-4-17,65.6,48.0,30.5,54.7,28.7,16.2,98,49,24,30.61,30.32,57,2,58,0.07
2014-4-18,59.2,49.9,41.1,42.1,38.7,31.6,83,66,48,30.49,30.28,9,1,15,0.00
2014-4-19,67.3,56.3,46.6,64.8,43.1,33.0,100,64,38,30.96,24.21,7,0,57,0.00
2014-4-20,74.5,58.8,45.1,43.5,36.8,26.0,87,51,17,30.38,30.26,13,3,20,0.00
2014-4-21,79.1,60.2,41.6,50.7,37.2,30.8,85,47,19,30.27,24.77,10,1,14,0.00
2014-4-22,75.5,64.6,50.5,71.6,46.5,38.2,95,53,36,30.18,24.46,15,3,23,0.00
2014-4-23,69.1,58.2,48.5,49.5,31.3,27.0,94,37,23,30.14,29.73,17,8,29,0.00
2014-4-24,75.7,58.9,42.3,44.7,33.2,24.2,92,42,16,30.21,24.78,10,1,15,0.00
2014-4-25,70.0,59.5,49.3,61.5,48.0,35.8,91,67,48,30.00,29.72,20,4,29,0.05
2014-4-26,79.7,65.2,48.0,47.0,37.6,26.8,76,40,16,29.99,29.88,19,6,34,0.00
2014-4-27,89.3,68.9,49.4,48.8,44.2,37.8,77,45,18,30.08,29.92,13,3,24,0.00
2014-4-28,66.2,58.3,50.1,52.5,46.1,39.3,92,66,43,30.09,29.97,11,2,16,0.16
2014-4-29,52.7,50.2,47.4,50.9,48.7,46.3,97,95,92,30.12,29.98,11,2,16,0.44
2014-4-30,69.9,58.4,49.8,64.1,56.3,49.2,98,93,77,30.11,29.87,11,2,16,0.12
2014-5-1,77.1,66.6,58.9,62.0,47.5,28.2,96,56,22,29.92,29.79,13,4,22,0.00
2014-5-2,73.5,61.9,48.4,39.9,36.7,32.2,71,41,23,29.96,29.84,13,3,18,0.00
2014-5-3,75.1,63.2,49.3,46.5,40.9,34.5,77,47,24,29.95,29.83,14,3,21,0.00
2014-5-4,79.2,67.1,48.8,45.2,40.7,36.3,77,41,23,30.01,29.85,20,5,34,0.00
2014-5-5,73.2,63.2,53.0,55.4,50.0,42.8,86,63,45,30.13,29.92,11,3,16,0.06
2014-5-6,78.9,65.0,48.7,60.6,52.7,46.4,93,67,38,30.07,29.92,11,3,17,0.00
2014-5-7,82.7,70.7,61.5,62.0,55.5,45.7,92,62,31,30.21,30.07,10,3,16,0.00
2014-5-8,92.7,75.3,59.7,63.9,52.0,29.4,92,54,12,30.22,30.08,12,1,16,0.00
2014-5-9,91.5,72.0,59.9,67.1,56.8,47.9,90,63,25,30.18,30.01,18,1,33,0.24
2014-5-10,72.3,68.2,63.7,64.8,61.4,58.8,90,79,66,30.14,30.04,12,2,18,0.20
2014-5-11,88.8,71.3,58.4,62.8,57.1,49.2,96,66,31,30.20,30.08,8,2,13,0.00
2014-5-12,93.7,75.9,60.2,65.9,59.0,53.7,92,60,29,30.23,30.11,9,1,15,0.00
2014-5-13,95.1,77.9,63.4,66.0,61.0,52.5,92,61,29,30.20,30.09,10,1,14,0.00
2014-5-14,89.5,74.9,65.2,68.3,64.2,60.2,90,71,48,30.22,30.08,12,4,18,0.00
2014-5-15,70.2,67.1,56.9,67.1,64.3,55.2,97,91,86,30.13,29.89,13,5,20,0.94
2014-5-16,70.8,57.2,48.2,55.8,44.0,37.2,95,65,30,30.08,29.91,14,6,21,0.04
2014-5-17,69.2,55.5,44.3,42.7,39.3,33.0,90,58,30,30.23,30.07,15,4,23,0.00
2014-5-18,74.1,58.7,46.7,43.7,39.4,32.8,86,53,23,30.29,30.18,9,1,46,0.00
2014-5-19,77.1,61.6,45.8,49.4,44.4,39.7,91,58,28,30.37,30.23,10,1,14,0.00
2014-5-20,78.8,64.1,49.1,55.4,48.8,36.1,92,62,26,30.28,30.08,9,1,14,0.00
2014-5-21,82.7,71.8,61.7,59.3,53.7,47.7,80,55,33,30.10,29.95,11,2,20,0.00
2014-5-22,82.1,73.7,67.0,60.0,54.9,48.9,70,53,36,30.00,29.93,15,5,24,0.00
2014-5-23,78.6,69.6,61.9,59.1,49.1,30.0,81,53,18,30.11,29.98,15,4,24,0.00
2014-5-24,79.8,67.5,50.6,50.6,45.1,38.9,73,47,25,30.19,30.09,13,2,20,0.00
2014-5-25,86.9,68.2,51.2,56.4,51.5,45.3,86,59,29,30.25,30.14,8,1,13,0.00
2014-5-26,90.6,73.5,58.4,60.9,55.3,47.5,90,58,24,30.22,30.07,9,1,13,0.00
2014-5-27,82.1,73.3,65.8,62.2,56.7,50.2,81,58,39,30.13,29.98,13,3,21,0.00
2014-5-28,84.6,72.8,64.4,61.5,56.0,46.0,81,58,31,30.07,29.99,11,2,15,0.00
2014-5-29,74.4,67.5,63.7,62.3,60.9,58.0,93,80,58,30.18,30.06,10,2,14,0.15
2014-5-30,81.3,70.0,63.3,65.1,61.0,56.1,95,76,47,30.21,30.09,11,2,17,0.00
2014-5-31,82.2,70.8,60.0,61.6,54.3,45.1,97,61,30,30.27,30.16,9,2,13,0.00
2014-6-1,78.5,69.0,60.5,54.0,50.9,45.2,73,54,34,30.38,30.26,11,3,15,0.00
2014-6-2,86.5,69.8,52.3,56.0,51.9,47.9,87,57,32,30.32,30.12,10,1,14,0.00
2014-6-3,80.1,71.2,63.3,61.0,56.8,50.5,78,62,40,30.14,29.97,12,2,16,0.00
2014-6-4,85.7,73.2,67.8,67.3,62.4,56.8,90,70,46,29.99,29.78,10,2,16,0.50
2014-6-5,78.5,71.0,63.5,66.4,57.9,49.1,93,66,37,29.95,29.73,14,4,22,0.07
2014-6-6,80.4,68.7,54.2,57.9,53.0,45.5,90,61,32,30.03,29.94,8,1,32,0.00
2014-6-7,84.1,71.1,60.8,60.9,56.6,52.1,90,63,37,30.10,29.99,9,1,13,0.00
2014-6-8,81.8,72.1,64.6,65.1,61.0,57.2,85,69,47,30.03,29.88,12,3,37,0.01
2014-6-9,88.1,73.6,65.1,65.1,60.0,51.7,94,66,36,29.96,29.88,10,1,16,0.00
2014-6-10,89.8,76.3,66.8,66.3,60.3,53.5,87,61,30,30.00,29.93,10,2,16,0.00
2014-6-11,89.4,73.8,65.1,67.6,63.5,55.8,94,74,36,30.04,29.87,13,2,21,1.47
2014-6-12,83.8,70.8,65.8,68.1,63.7,58.3,94,80,46,30.00,29.85,12,1,21,0.10
2014-6-13,81.1,70.3,62.2,65.2,59.0,49.3,95,71,36,29.96,29.82,12,2,22,0.01
2014-6-14,78.6,69.8,62.0,61.9,49.1,35.9,87,52,23,30.14,29.96,11,3,16,0.00
2014-6-15,85.6,70.0,52.7,61.9,55.1,48.6,88,62,39,30.27,30.13,8,1,13,0.00
2014-6-16,89.3,76.0,65.6,64.6,60.9,56.2,87,62,39,30.24,30.13,11,1,15,0.00
2014-6-17,92.2,76.3,66.4,66.5,62.5,55.7,92,66,33,30.22,30.09,8,1,12,0.00
2014-6-18,93.2,77.4,67.6,65.0,60.1,53.6,86,58,28,30.15,30.06,9,1,16,0.00
2014-6-19,87.8,76.6,70.7,64.7,59.5,51.7,79,57,34,30.13,30.05,14,4,21,0.00
2014-6-20,90.5,75.0,67.6,67.8,63.2,57.0,91,69,39,30.11,29.96,14,1,25,1.15
2014-6-21,86.9,73.2,66.8,67.5,63.1,55.1,94,73,38,29.99,29.86,16,2,24,0.00
2014-6-22,82.6,74.1,68.1,67.1,63.8,57.7,93,72,45,30.07,29.91,10,2,16,0.03
2014-6-23,82.5,72.7,65.8,66.4,62.8,57.2,92,73,46,30.17,30.06,10,2,14,0.00
2014-6-24,88.9,75.5,67.4,66.9,62.7,57.3,85,66,40,30.19,30.04,10,3,16,0.00
2014-6-25,88.0,75.7,69.1,68.5,63.1,57.4,90,67,41,30.06,29.93,11,2,17,0.00
2014-6-26,90.8,75.6,68.4,66.1,62.3,55.1,88,65,36,30.07,29.98,10,1,16,0.00
2014-6-27,90.0,76.6,66.3,65.9,62.3,55.1,92,64,34,30.19,30.07,8,1,13,0.00
2014-6-28,81.5,74.9,70.7,68.2,63.8,58.3,89,69,48,30.30,30.19,9,2,15,0.00
2014-6-29,76.8,70.8,65.8,60.7,57.4,51.9,81,64,45,30.30,30.18,9,1,14,0.00
2014-6-30,89.1,73.9,63.2,67.7,60.5,56.3,88,66,39,30.18,29.99,9,1,13,0.00
2014-7-1,91.8,78.9,69.6,67.6,64.7,59.3,91,64,39,30.03,29.90,9,1,13,0.00
2014-7-2,94.3,80.3,72.1,67.7,63.3,55.6,84,59,32,30.01,29.93,10,2,16,0.00
2014-7-3,86.9,73.4,67.4,70.0,66.5,61.0,93,80,51,30.06,29.97,17,1,29,0.60
2014-7-4,78.1,70.7,64.2,64.7,51.9,41.1,92,55,28,30.28,30.04,15,5,25,0.00
2014-7-5,83.2,69.0,52.2,55.7,49.1,38.0,90,54,23,30.37,30.24,7,1,10,0.00
2014-7-6,91.0,73.8,55.0,61.9,55.5,47.5,87,57,25,30.24,30.04,8,1,12,0.00
2014-7-7,93.2,78.9,67.8,63.1,59.6,54.0,78,54,30,30.07,29.93,10,1,15,0.00
2014-7-8,93.8,80.1,68.3,65.4,61.3,53.3,84,56,28,30.02,29.87,17,3,31,0.00
2014-7-9,85.3,74.9,69.3,71.0,66.2,57.4,93,76,44,30.07,29.95,21,2,34,0.51
2014-7-10,88.5,74.7,67.9,71.4,66.3,59.0,96,78,44,30.18,30.05,7,1,10,0.06
2014-7-11,92.8,77.9,66.3,70.4,66.6,63.2,96,72,41,30.27,30.17,11,1,24,1.40
2014-7-12,95.3,80.5,69.3,71.4,67.7,63.1,93,68,37,30.28,30.16,10,1,14,0.00
2014-7-13,94.4,82.1,71.9,72.0,68.6,66.1,86,66,43,30.18,30.03,11,1,15,0.00
2014-7-14,97.5,81.7,74.1,72.6,69.0,64.3,87,67,38,30.04,29.91,15,1,18,0.01
2014-7-15,86.4,76.3,70.4,69.4,67.3,61.0,89,75,47,29.93,29.81,14,2,23,0.02
2014-7-16,83.5,72.2,63.6,65.5,55.3,45.8,92,60,28,30.03,29.88,10,2,16,0.00
2014-7-17,88.3,71.7,57.8,58.8,53.5,47.1,87,56,28,30.17,30.02,9,1,13,0.00
2014-7-18,82.5,72.1,62.1,68.2,61.8,57.9,89,71,49,30.27,30.17,9,1,13,0.01
2014-7-19,79.1,72.5,67.8,67.3,63.6,54.8,93,76,46,30.25,30.15,7,0,11,0.04
2014-7-20,87.3,73.8,68.1,69.4,65.6,62.0,92,77,49,30.19,30.11,8,1,12,0.00
2014-7-21,83.8,75.5,70.9,71.6,69.1,66.9,93,82,60,30.23,30.13,7,1,10,0.05
2014-7-22,93.3,80.8,73.1,73.1,69.5,64.8,94,72,40,30.24,30.13,9,1,13,0.00
2014-7-23,96.7,82.2,70.2,71.8,67.9,60.8,94,65,33,30.16,29.92,10,1,16,0.00
2014-7-24,92.1,76.7,72.3,71.6,68.3,64.4,90,76,44,30.04,29.90,9,1,15,0.46
2014-7-25,89.8,76.3,65.6,69.4,64.9,59.3,94,71,41,30.14,30.03,9,1,13,1.75
2014-7-26,95.3,81.5,70.5,70.7,65.6,58.6,92,63,30,30.08,29.95,9,1,13,0.00
2014-7-27,88.9,78.4,72.4,72.3,68.0,61.8,92,71,48,29.99,29.77,11,1,16,0.16
2014-7-28,80.3,75.4,68.7,66.1,58.8,52.6,76,57,41,29.96,29.75,16,7,28,0.00
2014-7-29,82.3,71.2,61.4,62.0,56.5,46.0,90,62,30,30.09,29.93,8,0,13,0.00
2014-7-30,84.2,71.3,59.6,60.3,56.7,50.9,90,63,35,30.15,30.08,8,1,12,0.00
2014-7-31,86.4,72.5,60.4,64.7,60.9,55.6,92,69,40,30.20,30.13,9,1,11,0.00
2014-8-1,77.1,70.7,66.2,68.6,65.9,62.7,94,85,62,30.24,30.17,7,0,12,0.66
2014-8-2,76.5,70.4,65.0,68.1,65.5,63.1,95,85,66,30.20,30.12,6,0,9,0.01
2014-8-3,87.4,74.3,64.5,67.4,61.1,53.6,95,68,35,30.17,30.07,9,1,13,0.00
2014-8-4,91.4,74.9,61.7,66.9,61.9,58.1,94,68,35,30.19,30.09,9,0,12,0.00
2014-8-5,93.3,78.2,65.6,69.4,64.7,59.5,93,68,34,30.14,30.01,8,1,13,0.09
2014-8-6,92.0,77.2,66.2,69.6,65.1,58.5,93,70,35,30.06,29.95,8,1,14,0.02
2014-8-7,90.3,77.3,68.1,69.1,65.5,60.1,94,70,39,30.11,30.00,8,0,12,0.01
2014-8-8,78.2,73.6,69.7,70.2,67.6,64.7,93,82,70,30.19,30.11,7,1,12,0.27
2014-8-9,70.5,68.6,67.2,68.1,66.6,65.5,96,93,89,30.19,30.12,5,0,9,2.20
2014-8-10,73.3,70.1,67.4,70.7,67.8,65.9,96,93,85,30.20,30.13,8,0,10,0.06
2014-8-11,74.5,70.9,68.6,71.6,69.0,67.4,96,94,87,30.16,30.03,7,1,10,1.10
2014-8-12,87.6,74.4,68.4,73.8,70.1,66.8,97,87,62,30.04,29.82,11,2,18,0.70
2014-8-13,78.4,71.5,65.1,67.4,60.3,-21.3,93,70,46,30.05,29.88,14,4,21,0.00
2014-8-14,80.4,70.9,59.4,64.8,59.3,53.2,93,69,42,30.08,29.98,11,2,19,0.00
2014-8-15,87.9,74.2,64.1,67.2,62.8,55.8,93,70,43,30.09,29.99,9,1,13,0.00
2014-8-16,89.0,73.1,59.3,62.9,57.7,44.6,93,63,23,30.13,30.02,10,1,16,0.00
2014-8-17,88.6,75.5,68.4,69.2,63.4,58.0,84,67,42,30.07,30.00,7,0,9,0.00
2014-8-18,78.0,73.9,71.1,72.8,70.3,68.2,95,89,78,30.02,29.85,7,0,12,0.83
2014-8-19,83.0,76.0,71.0,73.1,70.3,66.6,97,83,62,29.98,29.85,8,0,12,0.07
2014-8-20,94.0,77.7,68.2,73.9,69.5,66.4,96,79,42,30.07,29.97,7,0,10,0.01
2014-8-21,93.3,78.6,70.2,71.9,68.2,62.6,93,74,37,30.15,30.05,7,0,12,0.03
2014-8-22,83.8,75.9,70.7,74.8,70.9,66.2,92,85,59,30.11,30.00,8,0,12,0.12
2014-8-23,90.7,78.1,73.7,74.2,71.4,66.9,92,81,53,30.08,29.97,12,1,16,1.77
2014-8-24,77.9,72.1,68.1,71.2,66.4,62.0,94,83,60,30.20,30.07,8,1,15,0.08
2014-8-25,85.0,71.9,61.4,65.0,61.2,55.3,95,72,40,30.22,30.14,8,1,13,0.00
2014-8-26,86.5,70.9,59.4,64.1,60.5,56.2,95,73,42,30.25,30.16,8,1,10,0.01
2014-8-27,90.2,73.6,59.8,67.4,62.1,57.5,96,71,37,30.20,30.02,6,0,10,0.01
2014-8-28,92.2,80.3,72.2,69.7,65.9,61.5,87,64,37,30.11,30.01,9,1,14,0.00
2014-8-29,87.5,76.6,68.0,69.3,61.5,54.6,80,61,42,30.25,30.11,9,1,15,0.00
2014-8-30,94.4,80.5,72.7,73.5,70.5,67.1,92,74,42,30.27,30.14,10,2,14,0.00
2014-8-31,94.3,81.4,73.9,72.9,70.5,62.8,91,72,43,30.20,30.08,10,1,13,0.00
2014-9-1,94.1,81.3,74.3,71.9,67.8,-7.9,90,67,34,30.14,29.98,11,2,17,0.04
2014-9-2,97.2,81.3,72.0,75.1,67.8,-20.6,93,67,8,30.20,29.48,11,1,15,0.68
2014-9-3,91.0,78.4,70.8,71.5,68.4,63.4,94,74,43,30.18,30.02,9,0,14,0.05
2014-9-4,90.9,77.1,71.1,72.8,70.7,69.1,94,82,50,30.23,30.15,8,1,12,0.06
2014-9-5,93.8,77.3,71.7,72.1,69.5,66.0,95,79,43,30.25,30.12,8,0,12,0.00
2014-9-6,92.4,78.0,71.3,72.6,69.3,64.2,94,77,41,30.14,29.99,10,1,18,0.33
2014-9-7,77.8,71.9,68.6,71.4,67.6,64.6,96,87,71,30.20,30.03,8,0,9,0.01
2014-9-8,96.4,70.3,66.2,90.0,61.8,50.3,89,75,50,30.24,30.15,15,1,48,1.36
2014-9-9,81.1,70.9,64.7,67.1,63.1,14.5,91,77,9,30.22,30.13,8,1,10,0.00
2014-9-10,80.3,73.0,67.9,69.4,67.1,64.3,94,83,61,30.19,30.06,8,1,11,0.06
2014-9-11,89.5,75.6,66.1,70.8,67.3,63.4,95,78,46,30.07,29.96,11,2,21,0.00
2014-9-12,74.4,72.1,68.3,71.1,68.1,-20.2,94,89,2,30.18,30.04,8,1,13,0.26
2014-9-13,75.9,68.3,63.1,68.7,62.5,-0.4,95,83,5,30.28,30.13,11,2,15,0.26
2014-9-14,75.4,66.4,62.0,60.3,56.0,51.7,86,70,45,30.36,30.24,7,1,13,0.00
2014-9-15,79.2,69.0,58.9,66.7,61.8,56.7,94,79,53,30.28,30.10,8,1,12,0.00
2014-9-16,80.2,71.0,64.2,65.4,61.1,54.1,93,73,44,30.11,30.01,9,1,13,0.00
2014-9-17,79.0,68.5,59.3,60.8,57.8,52.8,91,71,43,30.10,29.99,9,1,14,0.00
2014-9-18,80.8,68.9,59.4,65.1,60.1,54.0,94,76,42,30.12,30.00,7,0,10,0.00
2014-9-19,69.4,66.3,64.0,64.7,63.0,60.7,93,89,82,30.31,30.11,10,1,14,0.10
2014-9-20,82.8,70.2,61.5,63.5,60.0,54.0,96,74,41,30.31,30.05,8,1,10,0.01
2014-9-21,85.0,70.0,56.2,67.1,61.0,55.1,97,75,45,30.11,29.73,14,3,18,0.01
2014-9-22,74.3,66.0,59.8,55.5,51.3,47.6,75,60,40,30.26,29.93,13,4,20,0.00
2014-9-23,68.5,59.1,50.6,56.3,51.4,33.2,91,77,40,30.42,30.24,8,1,11,0.00
2014-9-24,71.2,60.7,52.1,60.0,54.9,42.9,95,83,40,30.46,30.36,7,1,12,0.01
2014-9-25,78.0,68.2,61.5,62.6,59.9,40.8,94,76,28,30.36,30.24,11,2,16,0.00
2014-9-26,76.0,68.5,63.6,63.1,61.6,58.6,90,79,57,30.32,30.23,7,0,9,0.00
2014-9-27,81.0,67.4,55.4,62.0,57.3,51.7,97,74,39,30.31,30.22,8,0,11,0.00
2014-9-28,79.2,65.7,52.1,63.6,57.9,-18.2,96,78,48,30.27,29.94,6,0,32,0.56
2014-9-29,77.9,69.0,63.9,67.2,64.1,61.8,95,85,59,30.12,29.98,6,0,8,0.05
2014-9-30,83.2,69.9,61.1,65.6,61.3,51.1,98,77,34,29.99,29.88,6,0,9,0.01
2014-10-1,80.0,69.6,60.2,65.1,61.9,57.8,93,78,51,30.10,29.97,9,1,13,0.00
2014-10-2,87.0,70.3,61.7,66.0,61.8,55.6,96,78,40,30.18,30.06,8,1,12,0.00
2014-10-3,78.5,70.2,66.8,67.7,65.2,56.1,94,85,48,30.11,29.76,11,3,16,0.14
2014-10-4,67.9,58.1,47.8,66.1,41.4,28.2,94,56,31,29.91,29.73,17,6,28,0.00
2014-10-5,68.3,53.8,42.3,44.1,38.1,32.5,87,59,28,30.01,29.87,11,2,17,0.00
2014-10-6,75.5,57.3,44.9,59.1,48.1,43.0,94,75,38,30.05,29.94,12,2,22,0.05
2014-10-7,74.6,62.4,54.8,62.8,57.9,53.4,96,86,52,30.12,29.95,11,1,15,0.90
2014-10-8,76.7,65.8,56.3,61.6,52.8,42.7,98,69,31,30.11,29.95,13,3,23,0.17
2014-10-9,79.3,63.0,49.8,55.2,49.6,46.3,93,66,34,30.21,30.07,8,1,16,0.00
2014-10-10,70.0,63.2,55.3,63.6,59.2,52.4,94,87,68,30.15,30.03,6,0,9,0.12
2014-10-11,68.3,63.7,59.9,65.0,61.7,58.2,97,93,88,30.18,29.98,7,1,9,0.05
2014-10-12,60.1,57.1,54.2,58.4,55.6,52.8,96,95,93,30.30,30.17,5,0,7,0.67
2014-10-13,67.3,60.6,54.3,64.2,59.1,53.2,98,95,87,30.31,30.19,9,1,14,0.24
2014-10-14,78.7,70.6,63.5,70.6,67.4,62.3,98,90,61,30.20,29.87,14,5,22,0.18
2014-10-15,75.4,66.8,60.2,69.5,61.7,52.9,94,84,57,29.90,29.80,12,3,18,1.09
2014-10-16,69.2,59.8,51.8,55.6,52.2,49.6,94,77,55,29.88,29.78,12,2,16,0.00
2014-10-17,76.3,62.9,53.4,55.6,51.4,45.0,88,69,35,29.93,29.77,9,2,13,0.00
2014-10-18,67.4,61.3,53.3,56.7,48.2,42.5,88,63,44,29.97,29.76,18,6,29,0.00
2014-10-19,65.5,54.5,48.0,43.6,39.1,34.1,80,58,34,30.17,29.97,15,5,25,0.00
2014-10-20,72.2,55.6,41.5,53.1,45.7,39.6,94,72,45,30.15,29.96,9,0,16,0.00
2014-10-21,67.2,57.2,51.1,53.6,47.2,41.0,90,70,49,30.00,29.88,18,4,29,0.00
2014-10-22,62.3,53.6,48.4,44.2,42.0,40.1,77,65,48,30.10,29.98,17,7,28,0.00
2014-10-23,65.2,54.2,49.0,44.8,42.5,39.9,77,66,46,30.10,30.00,17,9,28,0.00
2014-10-24,72.8,56.9,47.6,47.5,43.3,38.1,89,64,32,30.10,29.98,10,2,15,0.00
2014-10-25,74.7,59.3,44.7,53.0,44.0,39.1,91,60,29,30.06,29.86,10,2,17,0.00
2014-10-26,74.0,63.6,48.4,54.7,37.5,17.8,78,44,14,30.02,29.81,15,4,22,0.00
2014-10-27,79.4,58.9,43.3,49.7,41.7,35.6,80,56,27,30.14,30.02,9,1,13,0.00
2014-10-28,82.8,63.6,49.4,55.0,50.4,43.6,92,66,27,30.14,30.01,7,0,11,0.00
2014-10-29,67.3,61.1,49.9,58.6,49.6,39.6,89,67,45,30.05,29.98,13,2,21,0.00
2014-10-30,64.8,51.4,42.3,43.5,39.5,34.8,92,67,36,30.12,30.01,9,1,13,0.00
2014-10-31,61.9,48.5,39.1,47.8,41.2,36.9,97,78,45,30.06,29.81,8,0,10,0.20
2014-11-1,51.8,47.2,43.1,46.6,40.9,32.0,97,80,56,30.03,29.79,19,5,32,0.51
2014-11-2,50.9,43.7,38.5,31.8,26.4,22.4,66,51,35,30.34,30.03,20,8,36,0.00
2014-11-3,68.5,50.5,38.4,35.5,27.8,17.0,67,45,15,30.41,30.30,11,2,17,0.00
2014-11-4,74.6,59.4,48.3,44.0,33.2,21.1,67,39,22,30.31,30.18,7,0,9,0.00
2014-11-5,67.8,60.0,51.8,51.6,42.2,32.9,76,53,33,30.27,30.10,10,1,14,0.00
2014-11-6,71.5,57.8,49.7,58.2,47.4,36.4,94,71,32,30.10,29.73,20,5,32,0.10
2014-11-7,51.5,47.5,39.9,38.9,35.4,29.8,74,63,47,30.08,29.85,20,7,29,0.00
2014-11-8,58.9,44.6,31.0,41.1,34.3,28.2,91,69,42,30.09,29.93,10,1,13,0.00
2014-11-9,64.7,50.6,41.9,41.7,39.4,36.8,84,67,39,30.05,29.88,7,0,10,0.00
2014-11-10,67.9,50.7,37.6,44.8,40.9,35.8,95,72,42,30.15,30.05,12,1,16,0.00
2014-11-11,71.5,52.6,38.3,50.1,43.6,36.7,96,75,36,30.11,29.93,7,0,10,0.00
2014-11-12,66.1,54.5,45.9,51.2,41.0,33.6,92,63,32,30.13,29.93,12,4,18,0.00
2014-11-13,49.9,45.2,37.5,39.1,35.7,26.8,75,69,63,30.14,30.02,10,3,20,0.00
2014-11-14,39.3,32.1,26.5,27.3,17.9,13.6,71,56,41,30.34,30.09,14,7,23,0.00
2014-11-15,47.4,34.2,22.7,28.2,19.9,17.1,84,58,32,30.44,30.32,6,0,9,0.00
2014-11-16,54.7,44.2,37.1,39.2,27.8,21.3,79,53,33,30.34,30.02,7,1,10,0.01
2014-11-17,49.4,43.8,35.2,47.7,38.5,22.3,96,82,59,30.03,29.60,22,5,32,0.75
2014-11-18,34.9,26.8,22.6,23.2,11.2,5.7,65,52,38,30.27,29.86,22,8,35,0.00
2014-11-19,45.9,31.8,21.4,19.5,14.8,9.7,71,51,32,30.32,30.11,11,2,21,0.00
2014-11-20,53.7,41.4,28.3,29.9,23.7,16.9,79,51,32,30.14,29.97,14,3,25,0.00
2014-11-21,45.4,35.8,27.6,26.1,15.7,10.1,83,45,26,30.51,30.14,17,3,24,0.00
2014-11-22,54.7,36.9,23.6,29.8,22.0,16.8,94,58,29,30.52,30.29,9,1,12,0.00
2014-11-23,51.6,42.0,33.3,48.2,35.1,25.5,99,78,48,30.29,29.70,8,0,12,0.92
2014-11-24,72.0,59.3,48.4,59.8,53.3,47.9,100,83,51,29.88,29.65,11,3,21,0.01
2014-11-25,60.7,52.9,47.9,51.9,37.2,27.1,90,57,32,30.13,29.88,11,2,17,0.00
2014-11-26,48.3,41.6,36.4,44.3,39.7,35.8,98,93,69,30.11,29.96,6,0,9,1.00
2014-11-27,45.7,39.7,33.9,41.9,33.0,21.8,98,78,55,30.26,29.99,16,5,25,0.01
2014-11-28,41.1,34.5,28.8,26.7,23.3,19.1,83,64,47,30.37,30.24,14,4,21,0.00
2014-11-29,49.9,37.7,27.6,33.6,29.0,-35.9,89,72,49,30.27,30.16,8,1,11,0.00
2014-11-30,65.5,45.4,28.8,45.7,37.1,26.4,92,75,47,30.24,30.13,16,1,25,0.00
2014-12-1,68.5,55.7,43.3,54.5,48.1,35.0,96,77,35,30.34,30.23,12,3,23,0.09
2014-12-2,53.1,41.5,38.8,50.5,39.7,37.1,97,93,90,30.51,30.32,12,2,16,0.71
2014-12-3,57.6,45.2,38.6,53.3,40.8,28.3,98,86,51,30.33,30.10,17,2,26,0.02
2014-12-4,47.6,42.9,38.3,41.1,36.0,27.8,94,77,52,30.44,30.29,9,1,12,0.15
2014-12-5,45.3,42.1,39.6,41.5,39.5,37.8,94,91,82,30.50,30.34,8,1,12,0.01
2014-12-6,50.0,45.9,42.0,48.2,43.7,37.8,99,92,69,30.34,30.01,17,2,25,0.08
2014-12-7,48.3,42.0,35.0,39.2,27.5,20.5,78,58,35,30.50,30.24,16,4,23,0.00
2014-12-8,38.2,33.8,27.4,33.9,27.5,4.2,100,79,25,30.51,30.20,9,1,14,0.06
2014-12-9,48.2,39.7,32.9,39.1,35.2,32.8,100,85,65,30.19,29.93,13,5,18,0.03
2014-12-10,43.9,39.5,32.8,34.5,28.7,5.7,78,65,52,30.02,29.95,22,9,32,0.00
2014-12-11,44.2,34.9,27.2,23.0,17.1,10.5,71,50,28,30.12,29.95,18,8,28,0.00
2014-12-12,49.5,41.1,34.4,21.0,16.9,13.3,51,38,24,30.19,30.09,19,7,30,0.00
2014-12-13,56.8,42.5,36.5,30.6,24.6,16.9,77,51,28,30.16,30.06,14,7,21,0.00
2014-12-14,50.2,41.6,36.5,36.5,33.7,29.3,90,74,51,30.10,30.02,17,8,23,0.00
2014-12-15,56.2,41.9,33.2,39.7,35.8,31.8,95,81,51,30.15,30.04,9,1,13,0.00
2014-12-16,56.2,44.2,36.2,46.4,39.3,34.0,96,84,64,30.05,29.83,16,3,24,0.06
2014-12-17,51.3,45.5,38.4,38.4,32.4,25.9,74,61,40,30.11,29.97,17,7,27,0.00
2014-12-18,45.3,38.2,32.6,27.1,24.5,20.3,70,58,45,30.20,30.07,14,4,21,0.00
2014-12-19,46.4,37.8,29.2,29.1,24.8,20.6,74,60,45,30.22,30.10,13,3,17,0.00
2014-12-20,42.2,36.3,31.4,30.5,28.1,24.6,81,72,60,30.29,30.20,7,0,9,0.00
2014-12-21,50.9,41.2,36.4,34.5,31.8,29.4,81,70,47,30.31,30.21,8,1,12,0.00
2014-12-22,40.4,38.4,36.9,37.8,34.8,30.2,98,87,71,30.25,30.05,7,0,9,0.19
2014-12-23,45.7,41.6,36.8,43.5,40.6,32.4,99,96,92,30.08,29.97,8,0,10,0.26
2014-12-24,49.4,45.9,42.8,48.6,45.2,42.1,99,98,96,29.99,29.61,9,1,14,0.62
2014-12-25,49.9,44.4,35.7,48.4,33.3,28.0,98,66,49,30.25,29.67,21,7,33,0.00
2014-12-26,58.4,40.6,27.4,34.9,30.5,25.5,94,71,30,30.34,30.22,8,0,13,0.00
2014-12-27,62.7,46.2,32.6,37.3,31.7,25.8,92,62,25,30.32,30.11,7,0,9,0.00
2014-12-28,57.1,50.1,46.0,48.7,42.3,35.3,89,75,54,30.11,29.98,9,1,14,0.02
2014-12-29,49.3,43.3,38.0,46.7,41.8,36.6,97,94,89,30.23,30.06,11,2,16,0.43
2014-12-30,41.6,36.2,28.3,36.6,32.9,22.2,96,88,71,30.43,30.22,8,0,9,0.14
2014-12-31,40.2,30.4,25.1,23.7,19.3,15.5,89,65,41,30.45,30.29,12,2,18,0.00
2015-1-1,46.6,35.5,25.7,30.4,20.4,13.4,74,55,40,30.29,30.14,14,5,22,0.00
2015-1-2,45.5,43.0,39.4,38.2,34.6,30.3,81,72,64,30.38,30.16,15,3,24,0.01